sensor_id;sensor_type;location;lat;lon;timestamp;temperature;humidity
37050;DHT22;22958;51.232;6.826;2023-01-15T00:01:28;7.00;99.90
37050;DHT22;22958;51.232;6.826;2023-01-15T00:03:55;6.90;99.90
37050;DHT22;22958;51.232;6.826;2023-01-15T00:06:22;6.90;99.90
37050;DHT22;22958;51.232;6.826;2023-01-15T00:08:48;6.90;99.90
37050;DHT22;22958;51.232;6.826;2023-01-15T00:11:14;6.90;99.90
37050;DHT22;22958;51.232;6.826;2023-01-15T00:13:41;6.90;99.90
37050;DHT22;22958;51.232;6.826;2023-01-15T00:18:37;6.90;99.90
37050;DHT22;22958;51.232;6.826;2023-01-15T00:21:05;7.00;99.90
37050;DHT22;22958;51.232;6.826;2023-01-15T00:23:32;7.00;99.90
37050;DHT22;22958;51.232;6.826;2023-01-15T00:26:19;7.00;99.90
37050;DHT22;22958;51.232;6.826;2023-01-15T00:29:04;7.00;99.90
37050;DHT22;22958;51.232;6.826;2023-01-15T00:31:30;7.10;99.90
37050;DHT22;22958;51.232;6.826;2023-01-15T00:33:56;7.10;99.90
37050;DHT22;22958;51.232;6.826;2023-01-15T00:36:21;7.10;99.90
37050;DHT22;22958;51.232;6.826;2023-01-15T00:38:47;7.20;99.90
37050;DHT22;22958;51.232;6.826;2023-01-15T00:41:12;7.30;99.90
37050;DHT22;22958;51.232;6.826;2023-01-15T00:43:38;7.30;99.90
37050;DHT22;22958;51.232;6.826;2023-01-15T00:46:04;7.30;99.90
37050;DHT22;22958;51.232;6.826;2023-01-15T00:48:30;7.40;99.90
37050;DHT22;22958;51.232;6.826;2023-01-15T00:50:56;7.40;99.90
37050;DHT22;22958;51.232;6.826;2023-01-15T00:53:22;7.40;99.90
37050;DHT22;22958;51.232;6.826;2023-01-15T00:55:47;7.40;99.90
37050;DHT22;22958;51.232;6.826;2023-01-15T00:58:13;7.40;99.90
37050;DHT22;22958;51.232;6.826;2023-01-15T01:00:38;7.40;99.90
37050;DHT22;22958;51.232;6.826;2023-01-15T01:03:04;7.30;99.90
37050;DHT22;22958;51.232;6.826;2023-01-15T01:05:30;7.30;99.90
37050;DHT22;22958;51.232;6.826;2023-01-15T01:07:56;7.30;99.90
37050;DHT22;22958;51.232;6.826;2023-01-15T01:10:23;7.30;99.90
37050;DHT22;22958;51.232;6.826;2023-01-15T01:12:49;7.30;99.90
37050;DHT22;22958;51.232;6.826;2023-01-15T01:15:17;7.30;99.90
37050;DHT22;22958;51.232;6.826;2023-01-15T01:17:43;7.30;99.90
37050;DHT22;22958;51.232;6.826;2023-01-15T01:20:11;7.30;99.90
37050;DHT22;22958;51.232;6.826;2023-01-15T01:22:36;7.20;99.90
37050;DHT22;22958;51.232;6.826;2023-01-15T01:25:02;7.20;99.90
37050;DHT22;22958;51.232;6.826;2023-01-15T01:27:27;7.20;99.90
37050;DHT22;22958;51.232;6.826;2023-01-15T01:29:53;7.20;99.90
37050;DHT22;22958;51.232;6.826;2023-01-15T01:32:18;7.20;99.90
37050;DHT22;22958;51.232;6.826;2023-01-15T01:34:44;7.20;99.90
37050;DHT22;22958;51.232;6.826;2023-01-15T01:37:09;7.20;99.90
37050;DHT22;22958;51.232;6.826;2023-01-15T01:39:35;7.20;99.90
37050;DHT22;22958;51.232;6.826;2023-01-15T01:42:00;7.20;99.90
37050;DHT22;22958;51.232;6.826;2023-01-15T01:46:59;7.30;99.90
37050;DHT22;22958;51.232;6.826;2023-01-15T01:49:25;7.20;99.90
37050;DHT22;22958;51.232;6.826;2023-01-15T01:52:06;7.30;99.90
37050;DHT22;22958;51.232;6.826;2023-01-15T01:54:34;7.30;99.90
37050;DHT22;22958;51.232;6.826;2023-01-15T01:57:02;7.30;99.90
37050;DHT22;22958;51.232;6.826;2023-01-15T01:59:28;7.30;99.90
37050;DHT22;22958;51.232;6.826;2023-01-15T02:01:54;7.30;99.90
37050;DHT22;22958;51.232;6.826;2023-01-15T02:04:21;7.30;99.90
37050;DHT22;22958;51.232;6.826;2023-01-15T02:06:47;7.30;99.90
37050;DHT22;22958;51.232;6.826;2023-01-15T02:09:13;7.20;99.90
37050;DHT22;22958;51.232;6.826;2023-01-15T02:11:39;7.20;99.90
37050;DHT22;22958;51.232;6.826;2023-01-15T02:14:15;7.20;99.90
37050;DHT22;22958;51.232;6.826;2023-01-15T02:16:53;7.30;99.90
37050;DHT22;22958;51.232;6.826;2023-01-15T02:19:55;7.30;99.90
37050;DHT22;22958;51.232;6.826;2023-01-15T02:22:42;7.20;99.90
37050;DHT22;22958;51.232;6.826;2023-01-15T02:25:31;7.20;99.90
37050;DHT22;22958;51.232;6.826;2023-01-15T02:28:04;7.30;99.90
37050;DHT22;22958;51.232;6.826;2023-01-15T02:30:41;7.30;99.90
37050;DHT22;22958;51.232;6.826;2023-01-15T02:33:17;7.30;99.90
37050;DHT22;22958;51.232;6.826;2023-01-15T02:35:55;7.30;99.90
37050;DHT22;22958;51.232;6.826;2023-01-15T02:38:29;7.30;99.90
37050;DHT22;22958;51.232;6.826;2023-01-15T02:40:58;7.40;99.90
37050;DHT22;22958;51.232;6.826;2023-01-15T02:43:26;7.30;99.90
37050;DHT22;22958;51.232;6.826;2023-01-15T02:45:55;7.30;99.90
37050;DHT22;22958;51.232;6.826;2023-01-15T02:48:25;7.30;99.90
37050;DHT22;22958;51.232;6.826;2023-01-15T02:50:55;7.40;99.90
37050;DHT22;22958;51.232;6.826;2023-01-15T02:53:27;7.40;99.90
37050;DHT22;22958;51.232;6.826;2023-01-15T02:55:58;7.40;99.90
37050;DHT22;22958;51.232;6.826;2023-01-15T02:58:32;7.30;99.90
37050;DHT22;22958;51.232;6.826;2023-01-15T03:01:03;7.40;99.90
37050;DHT22;22958;51.232;6.826;2023-01-15T03:03:51;7.40;99.90
37050;DHT22;22958;51.232;6.826;2023-01-15T03:06:52;7.30;99.90
37050;DHT22;22958;51.232;6.826;2023-01-15T03:09:19;7.30;99.90
37050;DHT22;22958;51.232;6.826;2023-01-15T03:12:14;7.30;99.90
37050;DHT22;22958;51.232;6.826;2023-01-15T03:15:02;7.30;99.90
37050;DHT22;22958;51.232;6.826;2023-01-15T03:17:41;7.30;99.90
37050;DHT22;22958;51.232;6.826;2023-01-15T03:20:16;7.40;99.90
37050;DHT22;22958;51.232;6.826;2023-01-15T03:22:48;7.40;99.90
37050;DHT22;22958;51.232;6.826;2023-01-15T03:25:23;7.30;99.90
37050;DHT22;22958;51.232;6.826;2023-01-15T03:27:52;7.30;99.90
37050;DHT22;22958;51.232;6.826;2023-01-15T03:30:20;7.30;99.90
37050;DHT22;22958;51.232;6.826;2023-01-15T03:32:46;7.30;99.90
37050;DHT22;22958;51.232;6.826;2023-01-15T03:35:43;7.30;99.90
37050;DHT22;22958;51.232;6.826;2023-01-15T03:38:15;7.30;99.90
37050;DHT22;22958;51.232;6.826;2023-01-15T03:43:42;7.30;99.90
37050;DHT22;22958;51.232;6.826;2023-01-15T03:49:24;7.30;99.90
37050;DHT22;22958;51.232;6.826;2023-01-15T03:54:49;7.30;99.90
37050;DHT22;22958;51.232;6.826;2023-01-15T03:57:36;7.40;99.90
37050;DHT22;22958;51.232;6.826;2023-01-15T04:00:20;7.40;99.90
37050;DHT22;22958;51.232;6.826;2023-01-15T04:02:47;7.40;99.90
37050;DHT22;22958;51.232;6.826;2023-01-15T04:05:14;7.40;99.90
37050;DHT22;22958;51.232;6.826;2023-01-15T04:07:40;7.40;99.90
37050;DHT22;22958;51.232;6.826;2023-01-15T04:10:08;7.50;99.90
37050;DHT22;22958;51.232;6.826;2023-01-15T04:12:33;7.50;99.90
37050;DHT22;22958;51.232;6.826;2023-01-15T04:14:59;7.40;99.90
37050;DHT22;22958;51.232;6.826;2023-01-15T04:17:24;7.40;99.90
37050;DHT22;22958;51.232;6.826;2023-01-15T04:19:50;7.40;99.90
37050;DHT22;22958;51.232;6.826;2023-01-15T04:22:16;7.40;99.90
37050;DHT22;22958;51.232;6.826;2023-01-15T04:24:41;7.40;99.90
37050;DHT22;22958;51.232;6.826;2023-01-15T04:27:07;7.40;99.90
37050;DHT22;22958;51.232;6.826;2023-01-15T04:29:33;7.50;99.90
37050;DHT22;22958;51.232;6.826;2023-01-15T04:31:58;7.40;99.90
37050;DHT22;22958;51.232;6.826;2023-01-15T04:34:25;7.50;99.90
37050;DHT22;22958;51.232;6.826;2023-01-15T04:36:51;7.40;99.90
37050;DHT22;22958;51.232;6.826;2023-01-15T04:39:16;7.50;99.90
37050;DHT22;22958;51.232;6.826;2023-01-15T04:41:42;7.50;99.90
37050;DHT22;22958;51.232;6.826;2023-01-15T04:44:26;7.40;99.90
37050;DHT22;22958;51.232;6.826;2023-01-15T04:46:54;7.50;99.90
37050;DHT22;22958;51.232;6.826;2023-01-15T04:49:22;7.50;99.90
37050;DHT22;22958;51.232;6.826;2023-01-15T04:51:47;7.40;99.90
37050;DHT22;22958;51.232;6.826;2023-01-15T04:54:14;7.40;99.90
37050;DHT22;22958;51.232;6.826;2023-01-15T04:56:43;7.40;99.90
37050;DHT22;22958;51.232;6.826;2023-01-15T04:59:10;7.40;99.90
37050;DHT22;22958;51.232;6.826;2023-01-15T05:01:36;7.40;99.90
37050;DHT22;22958;51.232;6.826;2023-01-15T05:04:02;7.50;99.90
37050;DHT22;22958;51.232;6.826;2023-01-15T05:06:28;7.40;99.90
37050;DHT22;22958;51.232;6.826;2023-01-15T05:08:55;7.50;99.90
37050;DHT22;22958;51.232;6.826;2023-01-15T05:11:21;7.50;99.90
37050;DHT22;22958;51.232;6.826;2023-01-15T05:13:47;7.50;99.90
37050;DHT22;22958;51.232;6.826;2023-01-15T05:16:18;7.50;99.90
37050;DHT22;22958;51.232;6.826;2023-01-15T05:18:45;7.40;99.90
37050;DHT22;22958;51.232;6.826;2023-01-15T05:21:15;7.40;99.90
37050;DHT22;22958;51.232;6.826;2023-01-15T05:23:41;7.40;99.90
37050;DHT22;22958;51.232;6.826;2023-01-15T05:26:06;7.40;99.90
37050;DHT22;22958;51.232;6.826;2023-01-15T05:28:32;7.40;99.90
37050;DHT22;22958;51.232;6.826;2023-01-15T05:30:57;7.40;99.90
37050;DHT22;22958;51.232;6.826;2023-01-15T05:33:23;7.40;99.90
37050;DHT22;22958;51.232;6.826;2023-01-15T05:35:48;7.40;99.90
37050;DHT22;22958;51.232;6.826;2023-01-15T05:38:14;7.40;99.90
37050;DHT22;22958;51.232;6.826;2023-01-15T05:40:39;7.40;99.90
37050;DHT22;22958;51.232;6.826;2023-01-15T05:43:05;7.40;99.90
37050;DHT22;22958;51.232;6.826;2023-01-15T05:45:33;7.40;99.90
37050;DHT22;22958;51.232;6.826;2023-01-15T05:48:00;7.40;99.90
37050;DHT22;22958;51.232;6.826;2023-01-15T05:50:25;7.40;99.90
37050;DHT22;22958;51.232;6.826;2023-01-15T05:52:51;7.40;99.90
37050;DHT22;22958;51.232;6.826;2023-01-15T05:55:16;7.40;99.90
37050;DHT22;22958;51.232;6.826;2023-01-15T05:57:42;7.40;99.90
37050;DHT22;22958;51.232;6.826;2023-01-15T06:00:08;7.40;99.90
37050;DHT22;22958;51.232;6.826;2023-01-15T06:02:33;7.40;99.90
37050;DHT22;22958;51.232;6.826;2023-01-15T06:04:59;7.40;99.90
37050;DHT22;22958;51.232;6.826;2023-01-15T06:07:24;7.50;99.90
37050;DHT22;22958;51.232;6.826;2023-01-15T06:09:50;7.40;99.90
37050;DHT22;22958;51.232;6.826;2023-01-15T06:12:15;7.50;99.90
37050;DHT22;22958;51.232;6.826;2023-01-15T06:14:41;7.50;99.90
37050;DHT22;22958;51.232;6.826;2023-01-15T06:17:06;7.50;99.90
37050;DHT22;22958;51.232;6.826;2023-01-15T06:19:32;7.50;99.90
37050;DHT22;22958;51.232;6.826;2023-01-15T06:21:57;7.50;99.90
37050;DHT22;22958;51.232;6.826;2023-01-15T06:24:23;7.50;99.90
37050;DHT22;22958;51.232;6.826;2023-01-15T06:26:48;7.50;99.90
37050;DHT22;22958;51.232;6.826;2023-01-15T06:29:14;7.50;99.90
37050;DHT22;22958;51.232;6.826;2023-01-15T06:31:43;7.50;99.90
37050;DHT22;22958;51.232;6.826;2023-01-15T06:34:08;7.50;99.90
37050;DHT22;22958;51.232;6.826;2023-01-15T06:36:34;7.40;99.90
37050;DHT22;22958;51.232;6.826;2023-01-15T06:38:59;7.40;99.90
37050;DHT22;22958;51.232;6.826;2023-01-15T06:41:25;7.40;99.90
37050;DHT22;22958;51.232;6.826;2023-01-15T06:44:12;7.40;99.90
37050;DHT22;22958;51.232;6.826;2023-01-15T06:46:57;7.40;99.90
37050;DHT22;22958;51.232;6.826;2023-01-15T06:49:41;7.40;99.90
37050;DHT22;22958;51.232;6.826;2023-01-15T06:52:06;7.30;99.90
37050;DHT22;22958;51.232;6.826;2023-01-15T06:54:33;7.30;99.90
37050;DHT22;22958;51.232;6.826;2023-01-15T06:56:58;7.30;99.90
37050;DHT22;22958;51.232;6.826;2023-01-15T06:59:24;7.30;99.90
37050;DHT22;22958;51.232;6.826;2023-01-15T07:01:49;7.30;99.90
37050;DHT22;22958;51.232;6.826;2023-01-15T07:04:15;7.30;99.90
37050;DHT22;22958;51.232;6.826;2023-01-15T07:06:41;7.30;99.90
37050;DHT22;22958;51.232;6.826;2023-01-15T07:09:07;7.30;99.90
37050;DHT22;22958;51.232;6.826;2023-01-15T07:11:32;7.20;99.90
37050;DHT22;22958;51.232;6.826;2023-01-15T07:13:58;7.20;99.90
37050;DHT22;22958;51.232;6.826;2023-01-15T07:16:33;7.30;99.90
37050;DHT22;22958;51.232;6.826;2023-01-15T07:18:59;7.30;99.90
37050;DHT22;22958;51.232;6.826;2023-01-15T07:21:25;7.20;99.90
37050;DHT22;22958;51.232;6.826;2023-01-15T07:23:51;7.30;99.90
37050;DHT22;22958;51.232;6.826;2023-01-15T07:26:17;7.20;99.90
37050;DHT22;22958;51.232;6.826;2023-01-15T07:28:43;7.20;99.90
37050;DHT22;22958;51.232;6.826;2023-01-15T07:31:08;7.30;99.90
37050;DHT22;22958;51.232;6.826;2023-01-15T07:33:34;7.20;99.90
37050;DHT22;22958;51.232;6.826;2023-01-15T07:36:03;7.20;99.90
37050;DHT22;22958;51.232;6.826;2023-01-15T07:38:29;7.20;99.90
37050;DHT22;22958;51.232;6.826;2023-01-15T07:40:55;7.20;99.90
37050;DHT22;22958;51.232;6.826;2023-01-15T07:43:40;7.20;99.90
37050;DHT22;22958;51.232;6.826;2023-01-15T07:46:24;7.20;99.90
37050;DHT22;22958;51.232;6.826;2023-01-15T07:49:11;7.20;99.90
37050;DHT22;22958;51.232;6.826;2023-01-15T07:51:55;7.20;99.90
37050;DHT22;22958;51.232;6.826;2023-01-15T07:54:21;7.20;99.90
37050;DHT22;22958;51.232;6.826;2023-01-15T07:56:47;7.20;99.90
37050;DHT22;22958;51.232;6.826;2023-01-15T07:59:13;7.20;99.90
37050;DHT22;22958;51.232;6.826;2023-01-15T08:01:39;7.20;99.90
37050;DHT22;22958;51.232;6.826;2023-01-15T08:04:04;7.20;99.90
37050;DHT22;22958;51.232;6.826;2023-01-15T08:06:30;7.20;99.90
37050;DHT22;22958;51.232;6.826;2023-01-15T08:08:55;7.20;99.90
37050;DHT22;22958;51.232;6.826;2023-01-15T08:11:21;7.20;99.90
37050;DHT22;22958;51.232;6.826;2023-01-15T08:14:05;7.20;99.90
37050;DHT22;22958;51.232;6.826;2023-01-15T08:16:49;7.20;99.90
37050;DHT22;22958;51.232;6.826;2023-01-15T08:19:14;7.20;99.90
37050;DHT22;22958;51.232;6.826;2023-01-15T08:21:40;7.20;99.90
37050;DHT22;22958;51.232;6.826;2023-01-15T08:24:06;7.20;99.90
37050;DHT22;22958;51.232;6.826;2023-01-15T08:26:31;7.20;99.90
37050;DHT22;22958;51.232;6.826;2023-01-15T08:28:57;7.20;99.90
37050;DHT22;22958;51.232;6.826;2023-01-15T08:31:23;7.10;99.90
37050;DHT22;22958;51.232;6.826;2023-01-15T08:33:49;7.10;99.90
37050;DHT22;22958;51.232;6.826;2023-01-15T08:36:14;7.10;99.90
37050;DHT22;22958;51.232;6.826;2023-01-15T08:38:41;7.10;99.90
37050;DHT22;22958;51.232;6.826;2023-01-15T08:41:06;7.00;99.90
37050;DHT22;22958;51.232;6.826;2023-01-15T08:43:33;7.00;99.90
37050;DHT22;22958;51.232;6.826;2023-01-15T08:46:00;7.00;99.90
37050;DHT22;22958;51.232;6.826;2023-01-15T08:48:27;7.00;99.90
37050;DHT22;22958;51.232;6.826;2023-01-15T08:50:53;7.00;99.90
37050;DHT22;22958;51.232;6.826;2023-01-15T08:53:19;6.90;99.90
37050;DHT22;22958;51.232;6.826;2023-01-15T08:55:45;6.90;99.90
37050;DHT22;22958;51.232;6.826;2023-01-15T08:58:11;6.90;99.90
37050;DHT22;22958;51.232;6.826;2023-01-15T09:00:37;6.80;99.90
37050;DHT22;22958;51.232;6.826;2023-01-15T09:03:03;6.80;99.90
37050;DHT22;22958;51.232;6.826;2023-01-15T09:05:28;6.70;99.90
37050;DHT22;22958;51.232;6.826;2023-01-15T09:07:54;6.70;99.90
37050;DHT22;22958;51.232;6.826;2023-01-15T09:10:20;6.60;99.90
37050;DHT22;22958;51.232;6.826;2023-01-15T09:12:46;6.60;99.90
37050;DHT22;22958;51.232;6.826;2023-01-15T09:15:11;6.60;99.90
37050;DHT22;22958;51.232;6.826;2023-01-15T09:17:37;6.50;99.90
37050;DHT22;22958;51.232;6.826;2023-01-15T09:20:06;6.50;99.90
37050;DHT22;22958;51.232;6.826;2023-01-15T09:22:32;6.40;99.90
37050;DHT22;22958;51.232;6.826;2023-01-15T09:24:58;6.50;99.90
37050;DHT22;22958;51.232;6.826;2023-01-15T09:27:25;6.50;99.90
37050;DHT22;22958;51.232;6.826;2023-01-15T09:29:50;6.50;99.90
37050;DHT22;22958;51.232;6.826;2023-01-15T09:32:16;6.50;99.90
37050;DHT22;22958;51.232;6.826;2023-01-15T09:34:41;6.60;99.90
37050;DHT22;22958;51.232;6.826;2023-01-15T09:37:07;6.70;99.90
37050;DHT22;22958;51.232;6.826;2023-01-15T09:39:33;6.80;99.90
37050;DHT22;22958;51.232;6.826;2023-01-15T09:47:32;6.90;99.90
37050;DHT22;22958;51.232;6.826;2023-01-15T09:50:20;7.00;99.90
37050;DHT22;22958;51.232;6.826;2023-01-15T09:55:32;7.00;99.90
37050;DHT22;22958;51.232;6.826;2023-01-15T09:58:01;7.10;99.90
37050;DHT22;22958;51.232;6.826;2023-01-15T10:00:33;7.30;99.90
37050;DHT22;22958;51.232;6.826;2023-01-15T10:05:34;7.50;99.90
37050;DHT22;22958;51.232;6.826;2023-01-15T10:10:39;7.60;99.90
37050;DHT22;22958;51.232;6.826;2023-01-15T10:15:45;7.60;99.90
37050;DHT22;22958;51.232;6.826;2023-01-15T10:18:24;7.60;99.90
37050;DHT22;22958;51.232;6.826;2023-01-15T10:21:14;7.70;99.90
37050;DHT22;22958;51.232;6.826;2023-01-15T10:26:40;7.90;99.90
37050;DHT22;22958;51.232;6.826;2023-01-15T10:46:15;8.20;99.90
37050;DHT22;22958;51.232;6.826;2023-01-15T10:48:45;8.40;99.90
37050;DHT22;22958;51.232;6.826;2023-01-15T10:51:17;8.50;99.90
37050;DHT22;22958;51.232;6.826;2023-01-15T10:53:59;8.50;99.90
37050;DHT22;22958;51.232;6.826;2023-01-15T10:56:45;8.70;99.90
37050;DHT22;22958;51.232;6.826;2023-01-15T11:01:48;8.90;99.90
37050;DHT22;22958;51.232;6.826;2023-01-15T11:04:16;8.70;99.90
37050;DHT22;22958;51.232;6.826;2023-01-15T11:06:41;8.60;99.90
37050;DHT22;22958;51.232;6.826;2023-01-15T11:09:22;8.80;99.90
37050;DHT22;22958;51.232;6.826;2023-01-15T11:11:53;9.10;99.90
37050;DHT22;22958;51.232;6.826;2023-01-15T11:14:38;8.60;99.90
37050;DHT22;22958;51.232;6.826;2023-01-15T11:17:25;8.30;99.90
37050;DHT22;22958;51.232;6.826;2023-01-15T11:22:50;8.30;99.90
37050;DHT22;22958;51.232;6.826;2023-01-15T11:25:29;8.10;99.90
37050;DHT22;22958;51.232;6.826;2023-01-15T11:27:57;8.20;99.90
37050;DHT22;22958;51.232;6.826;2023-01-15T11:30:30;8.30;99.90
37050;DHT22;22958;51.232;6.826;2023-01-15T11:32:58;8.30;99.90
37050;DHT22;22958;51.232;6.826;2023-01-15T11:35:24;8.50;99.90
37050;DHT22;22958;51.232;6.826;2023-01-15T11:38:01;8.60;99.90
37050;DHT22;22958;51.232;6.826;2023-01-15T11:40:26;8.30;99.90
37050;DHT22;22958;51.232;6.826;2023-01-15T11:42:52;8.20;99.90
37050;DHT22;22958;51.232;6.826;2023-01-15T11:45:50;8.00;99.90
37050;DHT22;22958;51.232;6.826;2023-01-15T11:48:46;8.00;99.90
37050;DHT22;22958;51.232;6.826;2023-01-15T11:51:37;8.00;99.90
37050;DHT22;22958;51.232;6.826;2023-01-15T11:54:10;8.00;99.90
37050;DHT22;22958;51.232;6.826;2023-01-15T11:56:41;7.90;99.90
37050;DHT22;22958;51.232;6.826;2023-01-15T11:59:15;8.00;99.90
37050;DHT22;22958;51.232;6.826;2023-01-15T12:01:52;8.40;99.90
37050;DHT22;22958;51.232;6.826;2023-01-15T12:04:33;8.40;99.90
37050;DHT22;22958;51.232;6.826;2023-01-15T12:07:01;8.40;99.90
37050;DHT22;22958;51.232;6.826;2023-01-15T12:09:45;8.80;99.90
37050;DHT22;22958;51.232;6.826;2023-01-15T12:12:47;8.70;99.90
37050;DHT22;22958;51.232;6.826;2023-01-15T12:18:28;8.10;99.90
37050;DHT22;22958;51.232;6.826;2023-01-15T12:24:11;7.90;99.90
37050;DHT22;22958;51.232;6.826;2023-01-15T12:26:56;7.80;99.90
37050;DHT22;22958;51.232;6.826;2023-01-15T12:29:49;7.80;99.90
37050;DHT22;22958;51.232;6.826;2023-01-15T12:32:25;7.80;99.90
37050;DHT22;22958;51.232;6.826;2023-01-15T12:35:03;7.80;99.90
37050;DHT22;22958;51.232;6.826;2023-01-15T12:37:38;8.00;99.90
37050;DHT22;22958;51.232;6.826;2023-01-15T12:40:21;8.10;99.90
37050;DHT22;22958;51.232;6.826;2023-01-15T12:42:51;8.20;99.90
37050;DHT22;22958;51.232;6.826;2023-01-15T12:45:48;9.40;99.90
37050;DHT22;22958;51.232;6.826;2023-01-15T12:48:20;9.80;99.90
37050;DHT22;22958;51.232;6.826;2023-01-15T12:50:49;9.70;99.90
37050;DHT22;22958;51.232;6.826;2023-01-15T12:53:21;8.80;99.90
37050;DHT22;22958;51.232;6.826;2023-01-15T12:58:41;8.50;99.90
37050;DHT22;22958;51.232;6.826;2023-01-15T13:04:12;8.70;99.90
37050;DHT22;22958;51.232;6.826;2023-01-15T13:06:46;8.60;99.90
37050;DHT22;22958;51.232;6.826;2023-01-15T13:11:54;9.00;99.90
37050;DHT22;22958;51.232;6.826;2023-01-15T13:14:21;8.90;99.90
37050;DHT22;22958;51.232;6.826;2023-01-15T13:16:52;8.40;99.90
37050;DHT22;22958;51.232;6.826;2023-01-15T13:22:13;8.10;99.90
37050;DHT22;22958;51.232;6.826;2023-01-15T13:27:54;8.10;99.90
37050;DHT22;22958;51.232;6.826;2023-01-15T13:30:42;8.00;99.90
37050;DHT22;22958;51.232;6.826;2023-01-15T13:33:21;8.10;99.90
37050;DHT22;22958;51.232;6.826;2023-01-15T13:35:50;8.10;99.90
37050;DHT22;22958;51.232;6.826;2023-01-15T13:38:22;8.10;99.90
37050;DHT22;22958;51.232;6.826;2023-01-15T13:40:51;8.10;99.90
37050;DHT22;22958;51.232;6.826;2023-01-15T13:43:33;8.10;99.90
37050;DHT22;22958;51.232;6.826;2023-01-15T13:46:02;8.00;99.90
37050;DHT22;22958;51.232;6.826;2023-01-15T13:50:57;8.00;99.90
37050;DHT22;22958;51.232;6.826;2023-01-15T13:55:57;8.00;99.90
37050;DHT22;22958;51.232;6.826;2023-01-15T13:58:28;8.10;99.90
37050;DHT22;22958;51.232;6.826;2023-01-15T14:01:24;8.00;99.90
37050;DHT22;22958;51.232;6.826;2023-01-15T14:04:03;8.00;99.90
37050;DHT22;22958;51.232;6.826;2023-01-15T14:06:47;8.00;99.90
37050;DHT22;22958;51.232;6.826;2023-01-15T14:12:00;8.00;99.90
37050;DHT22;22958;51.232;6.826;2023-01-15T14:15:07;8.00;99.90
37050;DHT22;22958;51.232;6.826;2023-01-15T14:21:10;8.00;99.90
37050;DHT22;22958;51.232;6.826;2023-01-15T14:26:11;8.00;99.90
37050;DHT22;22958;51.232;6.826;2023-01-15T14:29:04;8.00;99.90
37050;DHT22;22958;51.232;6.826;2023-01-15T14:31:56;8.00;99.90
37050;DHT22;22958;51.232;6.826;2023-01-15T14:34:26;8.00;99.90
37050;DHT22;22958;51.232;6.826;2023-01-15T14:36:56;8.00;99.90
37050;DHT22;22958;51.232;6.826;2023-01-15T14:39:31;8.00;99.90
37050;DHT22;22958;51.232;6.826;2023-01-15T14:45:02;8.00;99.90
37050;DHT22;22958;51.232;6.826;2023-01-15T14:47:45;8.00;99.90
37050;DHT22;22958;51.232;6.826;2023-01-15T14:50:25;8.00;99.90
37050;DHT22;22958;51.232;6.826;2023-01-15T14:52:52;8.10;99.90
37050;DHT22;22958;51.232;6.826;2023-01-15T14:55:19;8.10;99.90
37050;DHT22;22958;51.232;6.826;2023-01-15T14:57:53;8.20;99.90
37050;DHT22;22958;51.232;6.826;2023-01-15T15:00:22;8.10;99.90
37050;DHT22;22958;51.232;6.826;2023-01-15T15:02:49;8.00;99.90
37050;DHT22;22958;51.232;6.826;2023-01-15T15:05:17;8.00;99.90
37050;DHT22;22958;51.232;6.826;2023-01-15T15:07:47;7.90;99.90
37050;DHT22;22958;51.232;6.826;2023-01-15T15:10:30;7.90;99.90
37050;DHT22;22958;51.232;6.826;2023-01-15T15:16:06;8.10;99.90
37050;DHT22;22958;51.232;6.826;2023-01-15T15:18:38;8.30;99.90
37050;DHT22;22958;51.232;6.826;2023-01-15T15:21:17;8.40;99.90
37050;DHT22;22958;51.232;6.826;2023-01-15T15:26:27;8.10;99.90
37050;DHT22;22958;51.232;6.826;2023-01-15T15:29:11;8.00;99.90
37050;DHT22;22958;51.232;6.826;2023-01-15T15:36:50;8.00;99.90
37050;DHT22;22958;51.232;6.826;2023-01-15T15:39:44;7.90;99.90
37050;DHT22;22958;51.232;6.826;2023-01-15T15:45:14;7.90;99.90
37050;DHT22;22958;51.232;6.826;2023-01-15T15:47:58;7.90;99.90
37050;DHT22;22958;51.232;6.826;2023-01-15T15:50:46;7.90;99.90
37050;DHT22;22958;51.232;6.826;2023-01-15T15:53:16;7.80;99.90
37050;DHT22;22958;51.232;6.826;2023-01-15T15:55:43;7.80;99.90
37050;DHT22;22958;51.232;6.826;2023-01-15T15:58:39;7.80;99.90
37050;DHT22;22958;51.232;6.826;2023-01-15T16:01:05;7.80;99.90
37050;DHT22;22958;51.232;6.826;2023-01-15T16:03:34;7.80;99.90
37050;DHT22;22958;51.232;6.826;2023-01-15T16:06:02;7.80;99.90
37050;DHT22;22958;51.232;6.826;2023-01-15T16:08:30;7.80;99.90
37050;DHT22;22958;51.232;6.826;2023-01-15T16:11:07;7.80;99.90
37050;DHT22;22958;51.232;6.826;2023-01-15T16:13:39;7.80;99.90
37050;DHT22;22958;51.232;6.826;2023-01-15T16:16:06;7.70;99.90
37050;DHT22;22958;51.232;6.826;2023-01-15T16:18:41;7.80;99.90
37050;DHT22;22958;51.232;6.826;2023-01-15T16:21:10;7.70;99.90
37050;DHT22;22958;51.232;6.826;2023-01-15T16:23:40;7.70;99.90
37050;DHT22;22958;51.232;6.826;2023-01-15T16:26:15;7.70;99.90
37050;DHT22;22958;51.232;6.826;2023-01-15T16:28:53;7.70;99.90
37050;DHT22;22958;51.232;6.826;2023-01-15T16:31:20;7.70;99.90
37050;DHT22;22958;51.232;6.826;2023-01-15T16:33:56;7.70;99.90
37050;DHT22;22958;51.232;6.826;2023-01-15T16:36:23;7.70;99.90
37050;DHT22;22958;51.232;6.826;2023-01-15T16:38:50;7.70;99.90
37050;DHT22;22958;51.232;6.826;2023-01-15T16:41:23;7.70;99.90
37050;DHT22;22958;51.232;6.826;2023-01-15T16:43:52;7.70;99.90
37050;DHT22;22958;51.232;6.826;2023-01-15T16:46:19;7.70;99.90
37050;DHT22;22958;51.232;6.826;2023-01-15T16:48:47;7.60;99.90
37050;DHT22;22958;51.232;6.826;2023-01-15T16:51:27;7.70;99.90
37050;DHT22;22958;51.232;6.826;2023-01-15T16:53:59;7.70;99.90
37050;DHT22;22958;51.232;6.826;2023-01-15T16:56:46;7.70;99.90
37050;DHT22;22958;51.232;6.826;2023-01-15T17:02:14;7.60;99.90
37050;DHT22;22958;51.232;6.826;2023-01-15T17:04:43;7.70;99.90
37050;DHT22;22958;51.232;6.826;2023-01-15T17:07:34;7.70;99.90
37050;DHT22;22958;51.232;6.826;2023-01-15T17:10:03;7.60;99.90
37050;DHT22;22958;51.232;6.826;2023-01-15T17:12:37;7.60;99.90
37050;DHT22;22958;51.232;6.826;2023-01-15T17:17:47;7.60;99.90
37050;DHT22;22958;51.232;6.826;2023-01-15T17:20:14;7.60;99.90
37050;DHT22;22958;51.232;6.826;2023-01-15T17:22:41;7.70;99.90
37050;DHT22;22958;51.232;6.826;2023-01-15T17:25:29;7.60;99.90
37050;DHT22;22958;51.232;6.826;2023-01-15T17:27:56;7.60;99.90
37050;DHT22;22958;51.232;6.826;2023-01-15T17:30:24;7.60;99.90
37050;DHT22;22958;51.232;6.826;2023-01-15T17:32:55;7.60;99.90
37050;DHT22;22958;51.232;6.826;2023-01-15T17:37:48;7.50;99.90
37050;DHT22;22958;51.232;6.826;2023-01-15T17:40:14;7.50;99.90
37050;DHT22;22958;51.232;6.826;2023-01-15T17:42:39;7.50;99.90
37050;DHT22;22958;51.232;6.826;2023-01-15T17:45:05;7.40;99.90
37050;DHT22;22958;51.232;6.826;2023-01-15T17:47:31;7.40;99.90
37050;DHT22;22958;51.232;6.826;2023-01-15T17:49:56;7.40;99.90
37050;DHT22;22958;51.232;6.826;2023-01-15T17:52:22;7.40;99.90
37050;DHT22;22958;51.232;6.826;2023-01-15T17:54:47;7.40;99.90
37050;DHT22;22958;51.232;6.826;2023-01-15T17:57:32;7.40;99.90
37050;DHT22;22958;51.232;6.826;2023-01-15T18:00:16;7.40;99.90
37050;DHT22;22958;51.232;6.826;2023-01-15T18:03:00;7.40;99.90
37050;DHT22;22958;51.232;6.826;2023-01-15T18:05:47;7.40;99.90